sensor_id;sensor_type;location;lat;lon;timestamp;pressure;altitude;pressure_sealevel;temperature;humidity
38191;BME280;25191;47.510;19.124;2022-11-15T00:09:34;100788.34;;;21.77;58.04
38191;BME280;25191;47.510;19.124;2022-11-15T00:19:34;100787.75;;;21.73;58.14
38191;BME280;25191;47.510;19.124;2022-11-15T00:29:53;100782.22;;;21.76;58.42
38191;BME280;25191;47.510;19.124;2022-11-15T00:39:58;100770.97;;;21.74;58.01
38191;BME280;25191;47.510;19.124;2022-11-15T00:49:58;100768.75;;;21.68;57.92
38191;BME280;25191;47.510;19.124;2022-11-15T00:59:59;100762.53;;;21.69;58.04
38191;BME280;25191;47.510;19.124;2022-11-15T01:09:59;100748.75;;;21.65;58.30
38191;BME280;25191;47.510;19.124;2022-11-15T01:20:00;100741.91;;;21.63;58.11
38191;BME280;25191;47.510;19.124;2022-11-15T01:30:00;100732.31;;;21.62;58.22
38191;BME280;25191;47.510;19.124;2022-11-15T01:40:01;100722.84;;;21.59;58.32
38191;BME280;25191;47.510;19.124;2022-11-15T01:50:08;100729.19;;;21.56;58.13
38191;BME280;25191;47.510;19.124;2022-11-15T02:00:10;100724.78;;;21.57;57.85
38191;BME280;25191;47.510;19.124;2022-11-15T02:10:17;100711.91;;;21.52;58.20
38191;BME280;25191;47.510;19.124;2022-11-15T02:20:40;100704.81;;;21.53;58.18
38191;BME280;25191;47.510;19.124;2022-11-15T02:41:39;100684.09;;;21.48;58.11
38191;BME280;25191;47.510;19.124;2022-11-15T02:51:44;100688.53;;;21.48;58.07
38191;BME280;25191;47.510;19.124;2022-11-15T03:02:03;100685.06;;;21.47;58.39
38191;BME280;25191;47.510;19.124;2022-11-15T03:12:12;100687.91;;;21.44;58.10
38191;BME280;25191;47.510;19.124;2022-11-15T03:22:19;100685.28;;;21.44;58.16
38191;BME280;25191;47.510;19.124;2022-11-15T03:32:23;100666.97;;;21.42;58.31
38191;BME280;25191;47.510;19.124;2022-11-15T03:42:30;100659.16;;;21.41;58.19
38191;BME280;25191;47.510;19.124;2022-11-15T03:52:34;100658.44;;;21.39;58.50
38191;BME280;25191;47.510;19.124;2022-11-15T04:02:35;100646.56;;;21.33;58.06
38191;BME280;25191;47.510;19.124;2022-11-15T04:12:38;100607.03;;;21.33;58.27
38191;BME280;25191;47.510;19.124;2022-11-15T04:22:39;100614.34;;;21.30;58.05
38191;BME280;25191;47.510;19.124;2022-11-15T04:32:58;100629.19;;;21.31;58.16
38191;BME280;25191;47.510;19.124;2022-11-15T04:42:58;100616.03;;;21.31;58.09
38191;BME280;25191;47.510;19.124;2022-11-15T04:52:58;100598.41;;;21.31;58.29
38191;BME280;25191;47.510;19.124;2022-11-15T05:02:59;100606.31;;;21.31;58.64
38191;BME280;25191;47.510;19.124;2022-11-15T05:13:18;100601.44;;;21.38;59.09
38191;BME280;25191;47.510;19.124;2022-11-15T05:23:19;100605.78;;;21.50;60.01
38191;BME280;25191;47.510;19.124;2022-11-15T05:33:19;100604.41;;;21.57;60.45
38191;BME280;25191;47.510;19.124;2022-11-15T05:43:20;100605.50;;;21.66;60.26
38191;BME280;25191;47.510;19.124;2022-11-15T05:53:21;100606.81;;;21.72;59.35
38191;BME280;25191;47.510;19.124;2022-11-15T06:03:23;100596.63;;;21.79;58.61
38191;BME280;25191;47.510;19.124;2022-11-15T06:13:23;100588.00;;;21.65;54.95
38191;BME280;25191;47.510;19.124;2022-11-15T06:23:23;100582.97;;;21.73;57.23
38191;BME280;25191;47.510;19.124;2022-11-15T06:33:24;100615.00;;;21.80;57.78
38191;BME280;25191;47.510;19.124;2022-11-15T06:43:25;100592.69;;;21.84;58.05
38191;BME280;25191;47.510;19.124;2022-11-15T06:53:26;100606.63;;;21.86;58.00
38191;BME280;25191;47.510;19.124;2022-11-15T07:03:27;100590.66;;;21.88;57.80
38191;BME280;25191;47.510;19.124;2022-11-15T07:13:29;100593.09;;;21.91;57.37
38191;BME280;25191;47.510;19.124;2022-11-15T07:23:30;100581.34;;;21.95;57.97
38191;BME280;25191;47.510;19.124;2022-11-15T07:33:30;100584.09;;;21.94;57.98
38191;BME280;25191;47.510;19.124;2022-11-15T07:43:31;100581.69;;;21.90;56.54
38191;BME280;25191;47.510;19.124;2022-11-15T07:53:33;100579.03;;;21.90;57.00
38191;BME280;25191;47.510;19.124;2022-11-15T08:03:34;100569.34;;;21.91;56.78
38191;BME280;25191;47.510;19.124;2022-11-15T08:13:34;100561.06;;;21.96;56.98
38191;BME280;25191;47.510;19.124;2022-11-15T08:23:35;100547.88;;;21.96;56.90
38191;BME280;25191;47.510;19.124;2022-11-15T08:33:36;100530.38;;;21.95;56.74
38191;BME280;25191;47.510;19.124;2022-11-15T08:43:37;100528.25;;;22.00;57.02
38191;BME280;25191;47.510;19.124;2022-11-15T08:53:37;100512.91;;;22.05;56.89
38191;BME280;25191;47.510;19.124;2022-11-15T09:03:40;100508.22;;;22.09;56.81
38191;BME280;25191;47.510;19.124;2022-11-15T09:13:40;100512.41;;;22.11;56.62
38191;BME280;25191;47.510;19.124;2022-11-15T09:23:41;100488.53;;;22.13;56.58
38191;BME280;25191;47.510;19.124;2022-11-15T09:33:44;100479.94;;;22.11;56.64
38191;BME280;25191;47.510;19.124;2022-11-15T09:44:07;100471.16;;;22.10;56.83
38191;BME280;25191;47.510;19.124;2022-11-15T09:54:20;100469.38;;;22.11;56.93
38191;BME280;25191;47.510;19.124;2022-11-15T10:04:23;100465.91;;;22.10;56.87
38191;BME280;25191;47.510;19.124;2022-11-15T10:14:28;100450.06;;;22.10;57.30
38191;BME280;25191;47.510;19.124;2022-11-15T10:24:35;100434.38;;;22.09;57.06
38191;BME280;25191;47.510;19.124;2022-11-15T10:34:36;100426.00;;;22.03;57.08
38191;BME280;25191;47.510;19.124;2022-11-15T10:44:42;100407.56;;;22.03;56.99
38191;BME280;25191;47.510;19.124;2022-11-15T10:54:49;100400.59;;;22.02;57.11
38191;BME280;25191;47.510;19.124;2022-11-15T11:04:52;100382.13;;;22.02;57.27
38191;BME280;25191;47.510;19.124;2022-11-15T11:14:52;100362.59;;;22.05;56.97
38191;BME280;25191;47.510;19.124;2022-11-15T11:35:24;100352.03;;;22.05;56.97
38191;BME280;25191;47.510;19.124;2022-11-15T11:46:01;100345.81;;;22.06;57.06
38191;BME280;25191;47.510;19.124;2022-11-15T11:56:26;100327.22;;;22.07;56.88
38191;BME280;25191;47.510;19.124;2022-11-15T12:06:33;100307.94;;;22.07;56.89
38191;BME280;25191;47.510;19.124;2022-11-15T12:16:37;100292.13;;;22.07;57.19
38191;BME280;25191;47.510;19.124;2022-11-15T12:26:46;100282.25;;;22.09;56.89
38191;BME280;25191;47.510;19.124;2022-11-15T12:36:50;100270.03;;;22.08;57.15
38191;BME280;25191;47.510;19.124;2022-11-15T13:07:05;100238.53;;;22.06;56.95
38191;BME280;25191;47.510;19.124;2022-11-15T13:27:18;100250.03;;;22.05;57.33
38191;BME280;25191;47.510;19.124;2022-11-15T13:47:21;100224.63;;;22.04;57.17
38191;BME280;25191;47.510;19.124;2022-11-15T13:57:26;100196.72;;;22.02;56.85
38191;BME280;25191;47.510;19.124;2022-11-15T14:07:29;100196.72;;;22.02;56.97
38191;BME280;25191;47.510;19.124;2022-11-15T14:27:30;100179.25;;;22.01;56.87
38191;BME280;25191;47.510;19.124;2022-11-15T14:37:33;100164.50;;;21.98;57.14
38191;BME280;25191;47.510;19.124;2022-11-15T14:47:34;100157.44;;;21.99;56.91
38191;BME280;25191;47.510;19.124;2022-11-15T14:57:36;100136.38;;;21.99;57.06
38191;BME280;25191;47.510;19.124;2022-11-15T15:07:43;100141.88;;;21.96;56.91
38191;BME280;25191;47.510;19.124;2022-11-15T15:17:43;100133.97;;;21.96;57.17
38191;BME280;25191;47.510;19.124;2022-11-15T15:27:44;100117.56;;;21.92;56.99
38191;BME280;25191;47.510;19.124;2022-11-15T15:37:46;100128.00;;;21.94;57.80
38191;BME280;25191;47.510;19.124;2022-11-15T15:47:47;100133.00;;;21.97;57.34
38191;BME280;25191;47.510;19.124;2022-11-15T15:57:49;100122.59;;;21.95;56.78
38191;BME280;25191;47.510;19.124;2022-11-15T16:07:50;100114.94;;;21.92;57.15
38191;BME280;25191;47.510;19.124;2022-11-15T16:17:56;100106.22;;;21.91;57.36
38191;BME280;25191;47.510;19.124;2022-11-15T16:27:56;100112.97;;;21.84;56.69
38191;BME280;25191;47.510;19.124;2022-11-15T16:37:56;100119.56;;;21.79;56.76
38191;BME280;25191;47.510;19.124;2022-11-15T16:47:57;100101.22;;;21.67;56.93
38191;BME280;25191;47.510;19.124;2022-11-15T16:57:57;100091.69;;;21.76;56.72
38191;BME280;25191;47.510;19.124;2022-11-15T17:17:58;100081.66;;;21.70;56.52
38191;BME280;25191;47.510;19.124;2022-11-15T17:27:59;100062.91;;;21.63;56.56
38191;BME280;25191;47.510;19.124;2022-11-15T17:38:00;100060.66;;;21.58;56.78
38191;BME280;25191;47.510;19.124;2022-11-15T17:48:00;100052.75;;;21.58;56.19
38191;BME280;25191;47.510;19.124;2022-11-15T17:58:00;100031.06;;;21.55;56.61
38191;BME280;25191;47.510;19.124;2022-11-15T18:08:01;100020.94;;;21.50;56.73
38191;BME280;25191;47.510;19.124;2022-11-15T18:18:01;100022.03;;;21.48;56.46
38191;BME280;25191;47.510;19.124;2022-11-15T18:28:01;100016.22;;;21.54;58.47
38191;BME280;25191;47.510;19.124;2022-11-15T18:38:02;100009.91;;;21.56;58.68
38191;BME280;25191;47.510;19.124;2022-11-15T18:48:02;100004.50;;;21.58;58.73
38191;BME280;25191;47.510;19.124;2022-11-15T18:58:03;99994.81;;;21.58;59.17
38191;BME280;25191;47.510;19.124;2022-11-15T19:08:03;99981.84;;;21.55;59.58
38191;BME280;25191;47.510;19.124;2022-11-15T19:18:03;99974.53;;;21.59;59.67
38191;BME280;25191;47.510;19.124;2022-11-15T19:28:04;99962.91;;;21.62;59.99
38191;BME280;25191;47.510;19.124;2022-11-15T19:38:05;99953.22;;;21.62;60.43
38191;BME280;25191;47.510;19.124;2022-11-15T19:48:06;99950.06;;;21.68;60.21
38191;BME280;25191;47.510;19.124;2022-11-15T19:58:06;99942.16;;;21.68;59.96
38191;BME280;25191;47.510;19.124;2022-11-15T20:08:06;99932.56;;;21.67;59.56
38191;BME280;25191;47.510;19.124;2022-11-15T20:18:07;99910.53;;;21.68;59.68
38191;BME280;25191;47.510;19.124;2022-11-15T20:28:08;99901.63;;;21.59;58.38
38191;BME280;25191;47.510;19.124;2022-11-15T20:38:12;99901.75;;;21.58;58.59
38191;BME280;25191;47.510;19.124;2022-11-15T20:48:13;99887.97;;;21.54;58.88
38191;BME280;25191;47.510;19.124;2022-11-15T20:58:14;99874.13;;;21.52;58.91
38191;BME280;25191;47.510;19.124;2022-11-15T21:08:16;99874.38;;;21.49;59.03
38191;BME280;25191;47.510;19.124;2022-11-15T21:18:16;99867.44;;;21.48;58.70
38191;BME280;25191;47.510;19.124;2022-11-15T21:28:17;99855.38;;;21.46;58.87
38191;BME280;25191;47.510;19.124;2022-11-15T21:38:17;99844.00;;;21.45;58.91
38191;BME280;25191;47.510;19.124;2022-11-15T21:48:17;99838.75;;;21.45;59.13
38191;BME280;25191;47.510;19.124;2022-11-15T21:58:18;99840.41;;;21.46;59.25
38191;BME280;25191;47.510;19.124;2022-11-15T22:08:20;99840.41;;;21.46;58.81
38191;BME280;25191;47.510;19.124;2022-11-15T22:18:23;99835.41;;;21.43;58.90
38191;BME280;25191;47.510;19.124;2022-11-15T22:28:24;99816.13;;;21.42;59.11
38191;BME280;25191;47.510;19.124;2022-11-15T22:38:25;99792.69;;;21.39;58.74
38191;BME280;25191;47.510;19.124;2022-11-15T22:48:29;99787.28;;;21.41;59.31
38191;BME280;25191;47.510;19.124;2022-11-15T22:58:30;99782.16;;;21.39;59.09
38191;BME280;25191;47.510;19.124;2022-11-15T23:08:32;99765.69;;;21.37;58.84
38191;BME280;25191;47.510;19.124;2022-11-15T23:18:34;99760.41;;;21.37;58.55
38191;BME280;25191;47.510;19.124;2022-11-15T23:28:34;99750.00;;;21.36;58.94
38191;BME280;25191;47.510;19.124;2022-11-15T23:38:36;99726.44;;;21.34;59.12
38191;BME280;25191;47.510;19.124;2022-11-15T23:48:36;99722.84;;;21.35;59.27
38191;BME280;25191;47.510;19.124;2022-11-15T23:58:37;99703.53;;;21.35;59.17
